createdAt,value
2018-09-21T00:00:14.136Z,100088.00
2018-09-21T00:02:42.530Z,100086.00
2018-09-21T00:05:10.926Z,100090.00
2018-09-21T00:07:39.270Z,100088.00
2018-09-21T00:10:07.717Z,100084.00
2018-09-21T00:12:35.989Z,100087.00
2018-09-21T00:15:05.645Z,100079.00
2018-09-21T00:17:34.015Z,100079.00
2018-09-21T00:20:02.327Z,100075.00
2018-09-21T00:22:30.411Z,100075.00
2018-09-21T00:24:58.873Z,100073.00
2018-09-21T00:27:27.344Z,100065.00
2018-09-21T00:29:55.445Z,100058.00
2018-09-21T00:32:24.522Z,100065.00
2018-09-21T00:34:52.754Z,100053.00
2018-09-21T00:37:20.941Z,100054.00
2018-09-21T00:39:49.293Z,100059.00
2018-09-21T00:42:17.533Z,100060.00
2018-09-21T00:44:45.652Z,100047.00
2018-09-21T00:47:13.857Z,100052.00
2018-09-21T00:49:42.009Z,100042.00
2018-09-21T00:52:10.104Z,100038.00
2018-09-21T00:54:38.240Z,100040.00
2018-09-21T00:57:06.386Z,100043.00
2018-09-21T00:59:34.479Z,100045.00
2018-09-21T01:02:02.506Z,100042.00
2018-09-21T01:04:36.459Z,100035.00
2018-09-21T01:07:04.459Z,100032.00
2018-09-21T01:09:32.665Z,100038.00
2018-09-21T01:12:00.733Z,100033.00
2018-09-21T01:14:28.897Z,100036.00
2018-09-21T01:16:56.995Z,100027.00
2018-09-21T01:19:25.192Z,100029.00
2018-09-21T01:21:53.254Z,100024.00
2018-09-21T01:24:21.330Z,100026.00
2018-09-21T01:26:49.332Z,100024.00
2018-09-21T01:29:17.379Z,100016.00
2018-09-21T01:31:45.422Z,100018.00
2018-09-21T01:34:13.742Z,100013.00
2018-09-21T01:36:41.767Z,100018.00
2018-09-21T01:39:10.495Z,100014.00
2018-09-21T01:41:38.567Z,100015.00
2018-09-21T01:44:07.749Z,100016.00
2018-09-21T01:46:35.829Z,100014.00
2018-09-21T01:49:03.964Z,100005.00
2018-09-21T01:51:32.043Z,100012.00
2018-09-21T01:54:00.046Z,100004.00
2018-09-21T01:56:28.186Z,100003.00
2018-09-21T01:58:56.317Z,99998.00
2018-09-21T02:01:24.423Z,99992.00
2018-09-21T02:03:52.544Z,99997.00
2018-09-21T02:06:20.600Z,99989.00
2018-09-21T02:08:48.663Z,99982.00
2018-09-21T02:11:16.785Z,99986.00
2018-09-21T02:13:44.898Z,99988.00
2018-09-21T02:16:12.953Z,99991.00
2018-09-21T02:18:40.980Z,99982.00
2018-09-21T02:21:09.029Z,99977.00
2018-09-21T02:23:37.128Z,99980.00
2018-09-21T02:26:05.234Z,99980.00
2018-09-21T02:28:33.365Z,99981.00
2018-09-21T02:31:01.463Z,99973.00
2018-09-21T02:33:29.604Z,99970.00
2018-09-21T02:35:57.703Z,99961.00
2018-09-21T02:38:25.864Z,99961.00
2018-09-21T02:40:53.962Z,99959.00
2018-09-21T02:43:21.966Z,99952.00
2018-09-21T02:45:50.008Z,99952.00
2018-09-21T02:48:18.793Z,99958.00
2018-09-21T02:50:46.869Z,99961.00
2018-09-21T02:53:14.924Z,99956.00
2018-09-21T02:55:43.003Z,99954.00
2018-09-21T02:58:11.107Z,99969.00
2018-09-21T03:00:39.708Z,99968.00
2018-09-21T03:03:07.743Z,99956.00
2018-09-21T03:05:36.013Z,99955.00
2018-09-21T03:08:04.179Z,99949.00
2018-09-21T03:10:32.296Z,99946.00
2018-09-21T03:13:00.457Z,99939.00
2018-09-21T03:15:28.500Z,99925.00
2018-09-21T03:17:56.549Z,99921.00
2018-09-21T03:20:24.584Z,99914.00
2018-09-21T03:22:52.646Z,99912.00
2018-09-21T03:25:20.690Z,99907.00
2018-09-21T03:27:48.845Z,99914.00
2018-09-21T03:30:17.040Z,99909.00
2018-09-21T03:32:45.090Z,99907.00
2018-09-21T03:35:13.447Z,99904.00
2018-09-21T03:37:41.565Z,99904.00
2018-09-21T03:40:09.888Z,99908.00
2018-09-21T03:42:38.064Z,99917.00
2018-09-21T03:45:06.564Z,99915.00
2018-09-21T03:47:34.636Z,99902.00
2018-09-21T03:50:02.785Z,99894.00
2018-09-21T03:52:30.853Z,99887.00
2018-09-21T03:54:58.923Z,99881.00
2018-09-21T03:57:27.109Z,99873.00
2018-09-21T03:59:55.219Z,99883.00
2018-09-21T04:02:23.276Z,99877.00
2018-09-21T04:04:51.335Z,99880.00
2018-09-21T04:07:19.416Z,99875.00
2018-09-21T04:09:47.550Z,99876.00
2018-09-21T04:12:15.607Z,99871.00
2018-09-21T04:14:43.685Z,99860.00
2018-09-21T04:17:11.764Z,99854.00
2018-09-21T04:19:39.877Z,99852.00
2018-09-21T04:22:08.219Z,99847.00
2018-09-21T04:24:36.397Z,99843.00
2018-09-21T04:27:04.476Z,99838.00
2018-09-21T04:29:32.592Z,99839.00
2018-09-21T04:32:00.654Z,99843.00
2018-09-21T04:34:28.742Z,99840.00
2018-09-21T04:36:56.809Z,99838.00
2018-09-21T04:39:24.871Z,99837.00
2018-09-21T04:41:53.007Z,99829.00
2018-09-21T04:44:21.097Z,99830.00
2018-09-21T04:46:49.243Z,99835.00
2018-09-21T04:49:17.395Z,99837.00
2018-09-21T04:51:45.518Z,99829.00
2018-09-21T04:54:13.744Z,99821.00
2018-09-21T04:56:41.834Z,99828.00
2018-09-21T04:59:09.999Z,99813.00
2018-09-21T05:01:38.321Z,99820.00
2018-09-21T05:04:06.395Z,99824.00
2018-09-21T05:06:34.593Z,99826.00
2018-09-21T05:09:03.709Z,99821.00
2018-09-21T05:11:31.822Z,99813.00
2018-09-21T05:14:00.901Z,99823.00
2018-09-21T05:16:29.182Z,99821.00
2018-09-21T05:18:57.284Z,99826.00
2018-09-21T05:21:25.443Z,99819.00
2018-09-21T05:23:53.567Z,99819.00
2018-09-21T05:26:21.744Z,99812.00
2018-09-21T05:28:49.945Z,99806.00
2018-09-21T05:31:18.127Z,99797.00
2018-09-21T05:33:46.273Z,99803.00
2018-09-21T05:36:14.390Z,99811.00
2018-09-21T05:38:42.641Z,99799.00
2018-09-21T05:41:10.821Z,99790.00
2018-09-21T05:43:38.915Z,99658.00
2018-09-21T05:46:07.025Z,99781.00
2018-09-21T05:48:35.238Z,99772.00
2018-09-21T05:51:03.406Z,99788.00
2018-09-21T05:53:31.631Z,99784.00
2018-09-21T05:55:59.964Z,99783.00
2018-09-21T05:58:29.195Z,99784.00
2018-09-21T06:00:57.364Z,99777.00
2018-09-21T06:03:25.616Z,99779.00
2018-09-21T06:05:53.893Z,99774.00
2018-09-21T06:08:22.431Z,99784.00
2018-09-21T06:10:50.608Z,99784.00
2018-09-21T06:13:19.476Z,99776.00
2018-09-21T06:15:48.126Z,99778.00
2018-09-21T06:18:17.432Z,99769.00
2018-09-21T06:20:45.540Z,99763.00
2018-09-21T06:23:13.733Z,99766.00
2018-09-21T06:25:41.868Z,99761.00
2018-09-21T06:28:10.101Z,99756.00
2018-09-21T06:30:38.350Z,99765.00
2018-09-21T06:33:06.767Z,99761.00
2018-09-21T06:35:35.042Z,99756.00
2018-09-21T06:38:03.227Z,99751.00
2018-09-21T06:40:31.812Z,99754.00
2018-09-21T06:43:00.053Z,99750.00
2018-09-21T06:45:28.220Z,99728.00
2018-09-21T06:47:56.756Z,99751.00
2018-09-21T06:50:25.426Z,99728.00
2018-09-21T06:52:53.830Z,99736.00
2018-09-21T06:55:22.113Z,99742.00
2018-09-21T06:57:50.280Z,99744.00
2018-09-21T07:00:18.903Z,99763.00
2018-09-21T07:02:47.127Z,99748.00
2018-09-21T07:05:16.173Z,99740.00
2018-09-21T07:07:44.817Z,99754.00
2018-09-21T07:10:13.784Z,99750.00
2018-09-21T07:12:42.629Z,99755.00
2018-09-21T07:15:10.813Z,99751.00
2018-09-21T07:17:39.643Z,99743.00
2018-09-21T07:20:07.900Z,99753.00
2018-09-21T07:22:36.168Z,99758.00
2018-09-21T07:25:05.138Z,99766.00
2018-09-21T07:27:33.292Z,99767.00
2018-09-21T07:30:01.415Z,99774.00
2018-09-21T07:32:30.383Z,99778.00
2018-09-21T07:34:58.917Z,99778.00
2018-09-21T07:37:27.095Z,99766.00
2018-09-21T07:39:55.226Z,99775.00
2018-09-21T07:42:23.404Z,99763.00
2018-09-21T07:44:51.591Z,99758.00
2018-09-21T07:47:19.824Z,99748.00
2018-09-21T07:49:48.014Z,99742.00
2018-09-21T07:52:16.247Z,99748.00
2018-09-21T07:54:44.468Z,99748.00
2018-09-21T07:57:12.561Z,99742.00
2018-09-21T07:59:40.891Z,99756.00
2018-09-21T08:02:09.123Z,99746.00
2018-09-21T08:04:37.543Z,99745.00
2018-09-21T08:07:05.820Z,99744.00
2018-09-21T08:09:33.965Z,99750.00
2018-09-21T08:12:02.202Z,99753.00
2018-09-21T08:14:30.404Z,99745.00
2018-09-21T08:16:58.878Z,99746.00
2018-09-21T08:19:27.235Z,99742.00
2018-09-21T08:21:55.446Z,99736.00
2018-09-21T08:24:23.687Z,99755.00
2018-09-21T08:26:51.955Z,99761.00
2018-09-21T08:29:20.208Z,99760.00
2018-09-21T08:31:48.506Z,99768.00
2018-09-21T08:34:16.639Z,99768.00
2018-09-21T08:36:44.913Z,99773.00
2018-09-21T08:39:13.099Z,99768.00
2018-09-21T08:41:42.025Z,99777.00
2018-09-21T08:44:10.843Z,99763.00
2018-09-21T08:46:39.325Z,99758.00
2018-09-21T08:49:07.417Z,99759.00
2018-09-21T08:51:35.630Z,99761.00
2018-09-21T08:54:04.076Z,99771.00
2018-09-21T08:56:32.444Z,99765.00
2018-09-21T08:59:00.608Z,99760.00
2018-09-21T09:01:28.933Z,99763.00
2018-09-21T09:03:57.040Z,99758.00
2018-09-21T09:06:25.206Z,99757.00
2018-09-21T09:08:53.385Z,99755.00
2018-09-21T09:11:21.717Z,99762.00
2018-09-21T09:13:49.779Z,99750.00
2018-09-21T09:16:17.896Z,99744.00
2018-09-21T09:18:46.170Z,99749.00
2018-09-21T09:21:14.252Z,99751.00
2018-09-21T09:23:42.568Z,99732.00
2018-09-21T09:26:10.601Z,99753.00
2018-09-21T09:28:38.721Z,99746.00
2018-09-21T09:31:07.247Z,99741.00
2018-09-21T09:33:35.406Z,99741.00
2018-09-21T09:36:03.704Z,99750.00
2018-09-21T09:38:32.016Z,99756.00
2018-09-21T09:41:00.346Z,99768.00
2018-09-21T09:43:28.562Z,99760.00
2018-09-21T09:45:56.767Z,99763.00
2018-09-21T09:48:25.016Z,99761.00
2018-09-21T09:50:53.166Z,99765.00
2018-09-21T09:53:21.501Z,99765.00
2018-09-21T09:55:49.672Z,99755.00
2018-09-21T09:58:18.064Z,99762.00
2018-09-21T10:00:51.836Z,99749.00
2018-09-21T10:03:21.485Z,99738.00
2018-09-21T10:05:49.558Z,99740.00
2018-09-21T10:08:17.856Z,99728.00
2018-09-21T10:10:46.094Z,99717.00
2018-09-21T10:13:14.361Z,99723.00
2018-09-21T10:18:20.364Z,99711.00
2018-09-21T10:20:48.561Z,99724.00
2018-09-21T10:23:16.611Z,99706.00
2018-09-21T10:25:44.701Z,99713.00
2018-09-21T10:28:13.103Z,99704.00
2018-09-21T10:30:41.234Z,99700.00
2018-09-21T10:33:09.444Z,99704.00
2018-09-21T10:35:37.786Z,99703.00
2018-09-21T10:38:06.192Z,99698.00
2018-09-21T10:40:34.283Z,99676.00
2018-09-21T10:43:02.519Z,99693.00
2018-09-21T10:45:31.327Z,99674.00
2018-09-21T10:47:59.764Z,99694.00
2018-09-21T10:50:28.015Z,99700.00
2018-09-21T10:52:56.112Z,99694.00
2018-09-21T10:55:24.653Z,99689.00
2018-09-21T10:57:52.828Z,99688.00
2018-09-21T11:00:20.949Z,99676.00
2018-09-21T11:02:49.214Z,99673.00
2018-09-21T11:05:17.435Z,99675.00
2018-09-21T11:07:45.609Z,99652.00
2018-09-21T11:10:14.949Z,99651.00
2018-09-21T11:12:43.228Z,99667.00
2018-09-21T11:15:11.448Z,99658.00
2018-09-21T11:17:39.647Z,99646.00
2018-09-21T11:20:08.699Z,99640.00
2018-09-21T11:22:36.947Z,99640.00
2018-09-21T11:25:05.142Z,99655.00
2018-09-21T11:27:33.246Z,99643.00
2018-09-21T11:30:01.378Z,99643.00
2018-09-21T11:32:29.657Z,99638.00
2018-09-21T11:34:57.820Z,99639.00
2018-09-21T11:37:26.056Z,99624.00
2018-09-21T11:39:54.190Z,99642.00
2018-09-21T11:42:22.344Z,99656.00
2018-09-21T11:44:50.577Z,99661.00
2018-09-21T11:47:19.067Z,99683.00
2018-09-21T11:49:47.176Z,99685.00
2018-09-21T11:52:15.510Z,99680.00
2018-09-21T11:54:43.728Z,99676.00
2018-09-21T11:57:12.005Z,99656.00
2018-09-21T11:59:40.280Z,99664.00
2018-09-21T12:02:08.439Z,99676.00
2018-09-21T12:04:36.584Z,99690.00
2018-09-21T12:07:04.698Z,99704.00
2018-09-21T12:09:32.740Z,99707.00
2018-09-21T12:12:00.919Z,99700.00
2018-09-21T12:14:29.051Z,99691.00
2018-09-21T12:16:57.482Z,99680.00
2018-09-21T12:19:25.605Z,99674.00
2018-09-21T12:21:53.756Z,99661.00
2018-09-21T12:24:22.103Z,99676.00
2018-09-21T12:26:50.265Z,99665.00
2018-09-21T12:29:18.836Z,99675.00
2018-09-21T12:31:46.985Z,99688.00
2018-09-21T12:34:15.179Z,99687.00
2018-09-21T12:36:43.745Z,99686.00
2018-09-21T12:39:13.245Z,99699.00
2018-09-21T12:41:41.642Z,99703.00
2018-09-21T12:44:11.677Z,99702.00
2018-09-21T12:46:39.999Z,99703.00
2018-09-21T12:49:08.192Z,99708.00
2018-09-21T12:51:36.393Z,99705.00
2018-09-21T12:54:04.724Z,99707.00
2018-09-21T12:56:33.020Z,99708.00
2018-09-21T12:59:01.206Z,99701.00
2018-09-21T13:01:29.451Z,99702.00
2018-09-21T13:03:57.555Z,99702.00
2018-09-21T13:06:26.017Z,99729.00
2018-09-21T13:08:54.122Z,99737.00
2018-09-21T13:11:22.447Z,99749.00
2018-09-21T13:13:50.626Z,99762.00
2018-09-21T13:16:18.837Z,99876.00
2018-09-21T13:18:47.061Z,99879.00
2018-09-21T13:21:15.444Z,99880.00
2018-09-21T13:23:43.684Z,99895.00
2018-09-21T13:26:11.853Z,99906.00
2018-09-21T13:28:40.229Z,99925.00
2018-09-21T13:31:08.509Z,99943.00
2018-09-21T13:33:36.756Z,99936.00
2018-09-21T13:36:05.124Z,99929.00
2018-09-21T13:38:33.453Z,99928.00
2018-09-21T13:41:01.647Z,99920.00
2018-09-21T13:43:29.994Z,99924.00
2018-09-21T13:45:58.120Z,99944.00
2018-09-21T13:48:26.355Z,99946.00
2018-09-21T13:50:54.627Z,99955.00
2018-09-21T13:53:22.857Z,99950.00
2018-09-21T13:55:51.093Z,99935.00
2018-09-21T13:58:19.324Z,99941.00
2018-09-21T14:00:47.467Z,99922.00
2018-09-21T14:03:15.714Z,99934.00
2018-09-21T14:05:43.887Z,99945.00
2018-09-21T14:08:12.359Z,99950.00
2018-09-21T14:10:40.689Z,99950.00
2018-09-21T14:13:08.905Z,99952.00
2018-09-21T14:15:37.344Z,99965.00
2018-09-21T14:18:05.753Z,99977.00
2018-09-21T14:20:34.229Z,99968.00
2018-09-21T14:23:02.639Z,99960.00
2018-09-21T14:25:31.054Z,99968.00
2018-09-21T14:27:59.280Z,99962.00
2018-09-21T14:30:28.193Z,99956.00
2018-09-21T14:32:56.438Z,99949.00
2018-09-21T14:35:24.627Z,99968.00
2018-09-21T14:37:52.937Z,99980.00
2018-09-21T14:40:21.477Z,99989.00
2018-09-21T14:42:49.741Z,99988.00
2018-09-21T14:45:18.021Z,100001.00
2018-09-21T14:47:46.142Z,100011.00
2018-09-21T14:50:14.556Z,100035.00
2018-09-21T14:52:42.759Z,100029.00
2018-09-21T14:55:10.985Z,99995.00
2018-09-21T14:57:39.638Z,100000.00
2018-09-21T15:00:07.984Z,99968.00
2018-09-21T15:02:36.228Z,99987.00
2018-09-21T15:05:04.562Z,99972.00
2018-09-21T15:07:32.820Z,99980.00
2018-09-21T15:10:01.078Z,100001.00
2018-09-21T15:12:29.656Z,100009.00
2018-09-21T15:14:58.090Z,100010.00
2018-09-21T15:17:26.477Z,100025.00
2018-09-21T15:19:54.811Z,100037.00
2018-09-21T15:22:23.134Z,100041.00
2018-09-21T15:24:51.318Z,100050.00
2018-09-21T15:27:19.471Z,100065.00
2018-09-21T15:29:47.716Z,100081.00
2018-09-21T15:32:16.124Z,100103.00
2018-09-21T15:34:44.983Z,100091.00
2018-09-21T15:37:13.665Z,100105.00
2018-09-21T15:39:41.940Z,100106.00
2018-09-21T15:42:10.327Z,100106.00
2018-09-21T15:44:38.572Z,100100.00
2018-09-21T15:47:07.041Z,100109.00
2018-09-21T15:49:35.395Z,100112.00
2018-09-21T15:52:04.491Z,100119.00
2018-09-21T15:54:32.675Z,100120.00
2018-09-21T15:57:00.983Z,100109.00
2018-09-21T15:59:29.596Z,100115.00
2018-09-21T16:01:58.199Z,100116.00
2018-09-21T16:04:26.511Z,100135.00
2018-09-21T16:06:54.824Z,100128.00
2018-09-21T16:09:23.070Z,100138.00
2018-09-21T16:11:51.377Z,100150.00
2018-09-21T16:14:19.734Z,100145.00
2018-09-21T16:16:48.002Z,100148.00
2018-09-21T16:19:16.261Z,100155.00
2018-09-21T16:21:44.770Z,100157.00
2018-09-21T16:24:13.111Z,100161.00
2018-09-21T16:26:41.423Z,100166.00
2018-09-21T16:29:09.662Z,100169.00
2018-09-21T16:31:37.925Z,100166.00
2018-09-21T16:34:06.324Z,100166.00
2018-09-21T16:36:34.518Z,100170.00
2018-09-21T16:39:02.819Z,100172.00
2018-09-21T16:41:31.069Z,100173.00
2018-09-21T16:43:59.367Z,100195.00
2018-09-21T16:46:27.680Z,100189.00
2018-09-21T16:48:55.891Z,100200.00
2018-09-21T16:51:24.255Z,100194.00
2018-09-21T16:53:52.532Z,100215.00
2018-09-21T16:56:20.896Z,100215.00
2018-09-21T16:58:49.305Z,100217.00
2018-09-21T17:01:17.527Z,100229.00
2018-09-21T17:03:45.759Z,100230.00
2018-09-21T17:06:13.976Z,100232.00
2018-09-21T17:08:42.217Z,100238.00
2018-09-21T17:11:10.426Z,100242.00
2018-09-21T17:13:38.765Z,100243.00
2018-09-21T17:16:06.989Z,100253.00
2018-09-21T17:18:35.272Z,100264.00
2018-09-21T17:21:03.617Z,100268.00
2018-09-21T17:23:31.940Z,100268.00
2018-09-21T17:26:00.225Z,100270.00
2018-09-21T17:28:28.539Z,100269.00
2018-09-21T17:30:56.785Z,100273.00
2018-09-21T17:33:24.957Z,100289.00
2018-09-21T17:35:53.248Z,100288.00
2018-09-21T17:38:21.440Z,100307.00
2018-09-21T17:40:49.755Z,100308.00
2018-09-21T17:43:18.033Z,100324.00
2018-09-21T17:45:46.191Z,100314.00
2018-09-21T17:48:14.407Z,100335.00
2018-09-21T17:50:42.852Z,100322.00
2018-09-21T17:53:11.095Z,100342.00
2018-09-21T17:55:39.395Z,100348.00
2018-09-21T17:58:07.884Z,100350.00
2018-09-21T18:00:36.251Z,100349.00
2018-09-21T18:03:04.645Z,100355.00
2018-09-21T18:05:33.205Z,100364.00
2018-09-21T18:08:01.674Z,100362.00
2018-09-21T18:10:30.047Z,100360.00
2018-09-21T18:12:58.420Z,100371.00
2018-09-21T18:15:26.823Z,100376.00
2018-09-21T18:17:55.310Z,100382.00
2018-09-21T18:20:23.595Z,100377.00
2018-09-21T18:22:51.937Z,100391.00
2018-09-21T18:25:20.285Z,100388.00
2018-09-21T18:27:48.541Z,100399.00
2018-09-21T18:30:17.593Z,100406.00
2018-09-21T18:32:45.937Z,100403.00
2018-09-21T18:35:14.688Z,100405.00
2018-09-21T18:37:43.304Z,100414.00
2018-09-21T18:40:11.651Z,100413.00
2018-09-21T18:42:40.195Z,100420.00
2018-09-21T18:45:08.648Z,100427.00
2018-09-21T18:47:37.125Z,100433.00
2018-09-21T18:50:05.495Z,100440.00
2018-09-21T18:52:34.012Z,100432.00
2018-09-21T18:55:02.568Z,100437.00
2018-09-21T18:57:31.261Z,100444.00
2018-09-21T18:59:59.799Z,100448.00
2018-09-21T19:02:28.126Z,100454.00
2018-09-21T19:04:56.432Z,100451.00
2018-09-21T19:07:30.581Z,100455.00
2018-09-21T19:09:59.791Z,100461.00
2018-09-21T19:12:28.745Z,100470.00
2018-09-21T19:14:57.343Z,100472.00
2018-09-21T19:17:26.095Z,100489.00
2018-09-21T19:19:54.635Z,100485.00
2018-09-21T19:22:23.415Z,100489.00
2018-09-21T19:24:52.091Z,100498.00
2018-09-21T19:27:20.878Z,100498.00
2018-09-21T19:29:50.246Z,100506.00
2018-09-21T19:32:19.001Z,100510.00
2018-09-21T19:34:47.512Z,100519.00
2018-09-21T19:37:15.930Z,100517.00
2018-09-21T19:39:44.175Z,100508.00
2018-09-21T19:42:12.564Z,100508.00
2018-09-21T19:44:41.073Z,100520.00
2018-09-21T19:47:09.326Z,100518.00
2018-09-21T19:49:37.565Z,100527.00
2018-09-21T19:52:06.133Z,100532.00
2018-09-21T19:54:34.405Z,100532.00
2018-09-21T19:57:02.649Z,100533.00
2018-09-21T19:59:31.026Z,100532.00
2018-09-21T20:01:59.219Z,100546.00
2018-09-21T20:04:27.669Z,100543.00
2018-09-21T20:06:55.940Z,100542.00
2018-09-21T20:09:24.172Z,100545.00
2018-09-21T20:11:52.487Z,100551.00
2018-09-21T20:14:21.143Z,100558.00
2018-09-21T20:16:49.545Z,100559.00
2018-09-21T20:19:17.904Z,100569.00
2018-09-21T20:21:46.378Z,100577.00
2018-09-21T20:24:14.889Z,100566.00
2018-09-21T20:26:43.178Z,100578.00
2018-09-21T20:29:11.816Z,100572.00
2018-09-21T20:31:45.805Z,100569.00
2018-09-21T20:34:14.283Z,100591.00
2018-09-21T20:36:42.912Z,100601.00
2018-09-21T20:39:11.282Z,100599.00
2018-09-21T20:41:39.805Z,100603.00
2018-09-21T20:44:08.233Z,100611.00
2018-09-21T20:46:36.607Z,100613.00
2018-09-21T20:49:04.970Z,100610.00
2018-09-21T20:51:33.473Z,100621.00
2018-09-21T20:54:01.676Z,100621.00
2018-09-21T20:56:30.197Z,100623.00
2018-09-21T20:58:58.437Z,100627.00
2018-09-21T21:01:26.836Z,100627.00
2018-09-21T21:03:55.178Z,100623.00
2018-09-21T21:06:23.554Z,100639.00
2018-09-21T21:08:51.941Z,100642.00
2018-09-21T21:11:20.167Z,100645.00
2018-09-21T21:13:48.557Z,100654.00
2018-09-21T21:16:16.872Z,100645.00
2018-09-21T21:18:45.016Z,100658.00
2018-09-21T21:21:14.049Z,100663.00
2018-09-21T21:23:42.265Z,100657.00
2018-09-21T21:26:10.591Z,100652.00
2018-09-21T21:28:38.834Z,100655.00
2018-09-21T21:31:06.973Z,100657.00
2018-09-21T21:33:35.274Z,100663.00
2018-09-21T21:36:03.517Z,100662.00
2018-09-21T21:38:31.700Z,100660.00
2018-09-21T21:40:59.877Z,100668.00
2018-09-21T21:43:28.089Z,100672.00
2018-09-21T21:45:56.244Z,100681.00
2018-09-21T21:48:24.477Z,100674.00
2018-09-21T21:50:53.003Z,100678.00
2018-09-21T21:53:21.317Z,100686.00
2018-09-21T21:55:49.389Z,100692.00
2018-09-21T21:58:17.688Z,100703.00
2018-09-21T22:00:51.486Z,100702.00
2018-09-21T22:03:19.753Z,100707.00
2018-09-21T22:05:47.895Z,100701.00
2018-09-21T22:08:16.197Z,100710.00
2018-09-21T22:10:44.339Z,100702.00
2018-09-21T22:13:18.077Z,100708.00
2018-09-21T22:15:46.143Z,100719.00
2018-09-21T22:18:14.265Z,100716.00
2018-09-21T22:20:42.456Z,100725.00
2018-09-21T22:23:10.633Z,100714.00
2018-09-21T22:25:38.843Z,100720.00
2018-09-21T22:28:07.027Z,100714.00
2018-09-21T22:30:35.183Z,100721.00
2018-09-21T22:33:03.353Z,100732.00
2018-09-21T22:35:31.726Z,100731.00
2018-09-21T22:37:59.872Z,100740.00
2018-09-21T22:40:28.001Z,100733.00
2018-09-21T22:42:56.101Z,100738.00
2018-09-21T22:45:24.310Z,100746.00
2018-09-21T22:47:52.592Z,100742.00
2018-09-21T22:50:21.443Z,100754.00
2018-09-21T22:52:49.618Z,100755.00
2018-09-21T22:55:17.777Z,100759.00
2018-09-21T22:57:45.898Z,100752.00
2018-09-21T23:00:14.574Z,100747.00
2018-09-21T23:02:42.716Z,100750.00
2018-09-21T23:05:10.873Z,100758.00
2018-09-21T23:07:39.008Z,100758.00
2018-09-21T23:10:07.201Z,100776.00
2018-09-21T23:12:35.344Z,100771.00
2018-09-21T23:15:03.610Z,100775.00
2018-09-21T23:17:31.842Z,100775.00
2018-09-21T23:20:00.042Z,100781.00
2018-09-21T23:22:28.259Z,100787.00
2018-09-21T23:24:56.399Z,100785.00
2018-09-21T23:27:24.495Z,100784.00
2018-09-21T23:29:52.628Z,100782.00
2018-09-21T23:32:20.901Z,100784.00
2018-09-21T23:34:49.024Z,100790.00
2018-09-21T23:37:17.766Z,100790.00
2018-09-21T23:39:45.901Z,100794.00
2018-09-21T23:42:14.041Z,100797.00
2018-09-21T23:44:42.234Z,100798.00
2018-09-21T23:47:10.333Z,100801.00
2018-09-21T23:49:38.480Z,100792.00
2018-09-21T23:52:06.586Z,100797.00
2018-09-21T23:54:34.802Z,100813.00
2018-09-21T23:57:02.878Z,100800.00
2018-09-21T23:59:31.042Z,100806.00
